Time;durP1;ratioP1;P1;durP2;ratioP2;P2;SDS_P1;SDS_P2;PMS_P1;PMS_P2;Temp;Humidity;BMP_temperature;BMP_pressure;BME280_temperature;BME280_humidity;BME280_pressure;Samples;Min_cycle;Max_cycle;Signal;HPM_P1;HPM_P2
2022/08/25 00:00:48;;;;;;;7.82;7.13;;;18.30;99.90;;;;;;5040903;28;20212;-75
2022/08/25 00:03:14;;;;;;;7.63;6.93;;;18.20;99.90;;;;;;5047300;28;20196;-75
2022/08/25 00:05:40;;;;;;;7.75;7.15;;;18.20;99.90;;;;;;5037947;28;20183;-75
2022/08/25 00:08:06;;;;;;;6.93;6.32;;;18.10;99.90;;;;;;5043670;28;20195;-74
2022/08/25 00:10:35;;;;;;;7.75;7.05;;;18.10;99.90;;;;;;5043512;28;20571;-74
2022/08/25 00:13:01;;;;;;;7.03;6.32;;;18.10;99.90;;;;;;5039400;28;20192;-75
2022/08/25 00:15:31;;;;;;;8.07;7.30;;;18.00;99.90;;;;;;5040506;28;20207;-74
2022/08/25 00:17:57;;;;;;;7.45;6.75;;;18.00;99.90;;;;;;5057468;28;20207;-74
2022/08/25 00:20:24;;;;;;;7.85;7.10;;;18.00;99.90;;;;;;5045309;28;20640;-74
2022/08/25 00:22:50;;;;;;;9.63;7.28;;;18.00;99.90;;;;;;5041028;28;20204;-75
2022/08/25 00:25:16;;;;;;;7.78;7.07;;;18.00;99.90;;;;;;5059128;28;20214;-75
2022/08/25 00:27:42;;;;;;;8.20;7.50;;;18.00;99.90;;;;;;5043562;28;20202;-75
2022/08/25 00:30:09;;;;;;;7.90;7.20;;;18.00;99.90;;;;;;5044206;28;20176;-75
2022/08/25 00:32:35;;;;;;;7.82;7.00;;;17.90;99.90;;;;;;5043917;28;20180;-75
2022/08/25 00:35:01;;;;;;;9.05;7.55;;;17.90;99.90;;;;;;5041583;28;20212;-75
2022/08/25 00:37:27;;;;;;;8.02;7.43;;;17.80;99.90;;;;;;5041528;28;20670;-75
2022/08/25 00:39:55;;;;;;;8.73;7.85;;;17.70;99.90;;;;;;5039108;28;20190;-75
2022/08/25 00:42:22;;;;;;;9.02;8.23;;;17.70;99.90;;;;;;5043768;28;20267;-75
2022/08/25 00:44:47;;;;;;;7.28;6.68;;;17.70;99.90;;;;;;5043196;28;20390;-75
2022/08/25 00:47:13;;;;;;;8.05;7.30;;;17.80;99.90;;;;;;5037762;28;20208;-75
2022/08/25 00:49:50;;;;;;;8.98;8.15;;;17.80;99.90;;;;;;5043558;28;20215;-75
2022/08/25 00:52:28;;;;;;;8.95;8.13;;;17.80;99.90;;;;;;5035295;28;20635;-75
2022/08/25 00:55:04;;;;;;;8.18;7.47;;;17.80;99.90;;;;;;5041940;28;20508;-76
2022/08/25 00:57:36;;;;;;;8.48;7.78;;;17.70;99.90;;;;;;5037839;28;20599;-76
2022/08/25 01:00:25;;;;;;;7.90;7.20;;;17.70;99.90;;;;;;5040593;28;20207;-75
2022/08/25 01:02:51;;;;;;;9.88;8.88;;;17.50;99.90;;;;;;5045948;28;20171;-75
2022/08/25 01:05:18;;;;;;;8.85;8.05;;;17.50;99.90;;;;;;5032229;28;20184;-75
2022/08/25 01:07:44;;;;;;;9.77;8.88;;;17.40;99.90;;;;;;5046691;28;20729;-75
2022/08/25 01:10:12;;;;;;;9.13;8.23;;;17.40;99.90;;;;;;5036679;28;20183;-75
2022/08/25 01:12:38;;;;;;;8.93;8.23;;;17.40;99.90;;;;;;5048398;28;20179;-75
2022/08/25 01:15:07;;;;;;;8.48;7.78;;;17.40;99.90;;;;;;5037088;28;20204;-75
2022/08/25 01:17:45;;;;;;;9.73;8.88;;;17.50;99.90;;;;;;5034946;28;20221;-75
2022/08/25 01:20:11;;;;;;;8.80;7.90;;;17.50;99.90;;;;;;5033824;28;20176;-75
2022/08/25 01:22:37;;;;;;;9.40;8.50;;;17.50;99.90;;;;;;5032136;28;20169;-75
2022/08/25 01:25:15;;;;;;;8.57;7.88;;;17.40;99.90;;;;;;5042259;28;20181;-75
2022/08/25 01:27:41;;;;;;;9.23;8.43;;;17.40;99.90;;;;;;5044975;28;20203;-75
2022/08/25 01:30:07;;;;;;;8.93;8.02;;;17.30;99.90;;;;;;5040650;28;20229;-75
2022/08/25 01:32:33;;;;;;;9.10;8.25;;;17.30;99.90;;;;;;5043277;28;20184;-75
2022/08/25 01:35:00;;;;;;;8.85;8.05;;;17.30;99.90;;;;;;5040770;28;20192;-76
2022/08/25 01:37:25;;;;;;;8.40;7.70;;;17.20;99.90;;;;;;5043215;28;20250;-75
2022/08/25 01:39:51;;;;;;;9.23;8.32;;;17.20;99.90;;;;;;5032042;28;20185;-75
2022/08/25 01:42:33;;;;;;;9.43;8.48;;;17.20;99.90;;;;;;5058609;28;20254;-75
2022/08/25 01:44:59;;;;;;;9.85;8.95;;;17.20;99.90;;;;;;5042578;28;20183;-76
2022/08/25 01:47:24;;;;;;;9.07;8.18;;;17.10;99.90;;;;;;5042903;28;20203;-75
2022/08/25 01:49:50;;;;;;;9.60;8.70;;;17.10;99.90;;;;;;5028579;28;20197;-76
2022/08/25 01:52:45;;;;;;;10.07;9.13;;;17.10;99.90;;;;;;5042041;28;20270;-75
2022/08/25 01:55:11;;;;;;;9.25;8.35;;;17.10;99.90;;;;;;5037259;28;20265;-75
2022/08/25 01:57:36;;;;;;;8.85;8.10;;;17.10;99.90;;;;;;5045545;28;20196;-75
2022/08/25 02:00:06;;;;;;;9.35;8.45;;;17.00;99.90;;;;;;5037307;28;20230;-76
2022/08/25 02:02:31;;;;;;;9.40;8.50;;;17.00;99.90;;;;;;5046021;28;20194;-75
2022/08/25 02:04:57;;;;;;;9.77;8.88;;;17.00;99.90;;;;;;5041345;28;20191;-75
2022/08/25 02:07:22;;;;;;;9.32;8.50;;;17.00;99.90;;;;;;5037242;28;20674;-75
2022/08/25 02:09:48;;;;;;;9.20;8.40;;;17.00;99.90;;;;;;5042594;28;20643;-75
2022/08/25 02:12:14;;;;;;;9.27;8.43;;;17.10;99.90;;;;;;5039317;28;20188;-75
2022/08/25 02:14:40;;;;;;;9.85;8.82;;;17.10;99.90;;;;;;5040261;28;20201;-75
2022/08/25 02:17:05;;;;;;;9.88;8.98;;;17.10;99.90;;;;;;5031008;28;20205;-75
2022/08/25 02:19:31;;;;;;;10.30;9.40;;;17.20;99.90;;;;;;5031148;28;20183;-75
2022/08/25 02:21:58;;;;;;;9.60;8.70;;;17.20;99.90;;;;;;5039349;28;20191;-75
2022/08/25 02:24:24;;;;;;;10.00;9.05;;;17.20;99.90;;;;;;5028910;28;20185;-76
2022/08/25 02:26:50;;;;;;;9.65;8.82;;;17.10;99.90;;;;;;5040372;28;20192;-75
2022/08/25 02:29:16;;;;;;;10.18;9.05;;;17.10;99.90;;;;;;5046103;28;20176;-75
2022/08/25 02:31:42;;;;;;;10.38;8.90;;;17.00;99.90;;;;;;5046239;28;20177;-74
2022/08/25 02:34:08;;;;;;;10.30;9.25;;;16.90;99.90;;;;;;5038796;28;20299;-74
2022/08/25 02:36:34;;;;;;;10.18;9.02;;;16.90;99.90;;;;;;5044733;28;20219;-75
2022/08/25 02:39:00;;;;;;;10.55;9.40;;;16.90;99.90;;;;;;5040685;28;20220;-75
2022/08/25 02:41:26;;;;;;;10.40;9.40;;;17.00;99.90;;;;;;5034425;28;20174;-74
2022/08/25 02:43:52;;;;;;;10.10;9.20;;;17.00;99.90;;;;;;5046305;28;20692;-74
2022/08/25 02:46:20;;;;;;;10.05;9.15;;;17.00;99.90;;;;;;5041565;28;20183;-74
2022/08/25 02:48:46;;;;;;;8.88;8.15;;;17.00;99.90;;;;;;5043057;28;20693;-75
2022/08/25 02:51:12;;;;;;;10.70;9.80;;;16.90;99.90;;;;;;5039926;28;20192;-74
2022/08/25 02:53:39;;;;;;;10.27;9.38;;;16.80;99.90;;;;;;5044192;28;20200;-75
2022/08/25 02:56:09;;;;;;;9.85;8.95;;;16.80;99.90;;;;;;5039751;28;20204;-75
2022/08/25 02:58:36;;;;;;;10.38;9.45;;;16.80;99.90;;;;;;5044210;28;20220;-75
2022/08/25 03:01:02;;;;;;;10.90;9.90;;;16.80;99.90;;;;;;5046210;28;20181;-75
2022/08/25 03:03:28;;;;;;;10.95;9.85;;;16.80;99.90;;;;;;5046078;28;20540;-75
2022/08/25 03:05:56;;;;;;;11.15;10.15;;;16.80;99.90;;;;;;5037631;28;20188;-74
2022/08/25 03:08:22;;;;;;;11.07;9.98;;;16.80;99.90;;;;;;5032278;28;20322;-74
2022/08/25 03:10:48;;;;;;;10.98;9.52;;;16.90;99.90;;;;;;5032152;28;20270;-74
2022/08/25 03:13:14;;;;;;;10.63;9.52;;;16.80;99.90;;;;;;5042931;28;20270;-74
2022/08/25 03:15:41;;;;;;;11.30;10.18;;;16.80;99.90;;;;;;5045786;28;20233;-75
2022/08/25 03:18:07;;;;;;;11.00;9.73;;;16.70;99.90;;;;;;5041917;28;20282;-75
2022/08/25 03:20:34;;;;;;;12.98;10.18;;;16.70;99.90;;;;;;5045441;28;20177;-75
2022/08/25 03:23:01;;;;;;;10.55;9.55;;;16.70;99.90;;;;;;5043871;28;20551;-74
2022/08/25 03:28:13;;;;;;;10.75;9.65;;;16.70;99.90;;;;;;5041974;28;20211;-75
2022/08/25 03:30:39;;;;;;;11.68;10.40;;;16.70;99.90;;;;;;5045138;28;20175;-75
2022/08/25 03:33:05;;;;;;;10.95;9.95;;;16.70;99.90;;;;;;5044947;28;20192;-75
2022/08/25 03:35:30;;;;;;;13.20;10.98;;;16.70;99.90;;;;;;5044925;28;20692;-75
2022/08/25 03:37:57;;;;;;;11.25;10.18;;;16.60;99.90;;;;;;5039430;28;20577;-75
2022/08/25 03:40:23;;;;;;;11.27;10.27;;;16.50;99.90;;;;;;5045049;28;20176;-74
2022/08/25 03:42:49;;;;;;;12.30;11.10;;;16.40;99.90;;;;;;5044540;28;20251;-74
2022/08/25 03:45:16;;;;;;;11.57;10.57;;;16.40;99.90;;;;;;5040684;28;20265;-75
2022/08/25 03:47:48;;;;;;;13.40;12.10;;;16.40;99.90;;;;;;5033876;28;20204;-75
2022/08/25 03:50:16;;;;;;;13.13;11.52;;;16.40;99.90;;;;;;5038666;28;20196;-75
2022/08/25 03:52:42;;;;;;;11.88;10.88;;;16.50;99.90;;;;;;5027011;28;20204;-75
2022/08/25 03:55:11;;;;;;;12.50;11.18;;;16.50;99.90;;;;;;5033989;28;20200;-74
2022/08/25 03:57:37;;;;;;;11.77;10.60;;;16.50;99.90;;;;;;5035850;28;20187;-74
2022/08/25 04:00:05;;;;;;;14.02;11.10;;;16.50;99.90;;;;;;5041994;28;20180;-74
2022/08/25 04:02:32;;;;;;;12.45;11.25;;;16.50;99.90;;;;;;5035696;28;20169;-74
2022/08/25 04:04:58;;;;;;;18.75;12.52;;;16.40;99.90;;;;;;5043436;28;20184;-74
2022/08/25 04:07:23;;;;;;;12.20;11.07;;;16.30;99.90;;;;;;5035626;28;20210;-73
2022/08/25 04:09:52;;;;;;;13.60;11.02;;;16.20;99.90;;;;;;5036603;28;20200;-74
2022/08/25 04:12:17;;;;;;;11.57;10.40;;;16.10;99.90;;;;;;5038956;28;20263;-75
2022/08/25 04:14:43;;;;;;;11.48;10.48;;;16.00;99.90;;;;;;5045262;28;20295;-74
2022/08/25 04:17:09;;;;;;;13.43;12.10;;;16.00;99.90;;;;;;5042415;28;20206;-74
2022/08/25 04:19:35;;;;;;;12.00;10.77;;;16.00;99.90;;;;;;5030822;28;20176;-74
2022/08/25 04:22:00;;;;;;;11.93;10.52;;;16.00;99.90;;;;;;5040653;28;20203;-74
2022/08/25 04:24:26;;;;;;;13.68;10.65;;;16.00;99.90;;;;;;5027595;28;20187;-74
2022/08/25 04:26:52;;;;;;;12.10;10.82;;;16.00;99.90;;;;;;5042796;28;20524;-74
2022/08/25 04:29:20;;;;;;;12.07;10.88;;;16.00;99.90;;;;;;5038668;28;20180;-74
2022/08/25 04:31:49;;;;;;;12.10;10.95;;;16.00;99.90;;;;;;5044746;28;20181;-75
2022/08/25 04:34:15;;;;;;;12.73;11.32;;;16.00;99.90;;;;;;5041560;28;20250;-76
2022/08/25 04:36:41;;;;;;;12.85;11.68;;;16.00;99.90;;;;;;5038070;28;20180;-75
2022/08/25 04:39:06;;;;;;;12.85;11.50;;;16.00;99.90;;;;;;5044174;28;20172;-75
2022/08/25 04:41:33;;;;;;;12.05;10.82;;;16.00;99.90;;;;;;5032950;28;20207;-75
2022/08/25 04:44:00;;;;;;;14.98;12.35;;;16.10;99.90;;;;;;5044513;28;20670;-75
2022/08/25 04:46:29;;;;;;;12.63;11.32;;;16.10;99.90;;;;;;5036915;28;20218;-76
2022/08/25 04:48:56;;;;;;;13.10;11.80;;;16.20;99.90;;;;;;5039001;28;20196;-75
2022/08/25 04:51:26;;;;;;;13.70;11.82;;;16.20;99.90;;;;;;5043716;28;20211;-75
2022/08/25 04:53:53;;;;;;;12.07;10.88;;;16.30;99.90;;;;;;5041326;28;20196;-75
2022/08/25 04:56:23;;;;;;;12.25;11.07;;;16.40;99.90;;;;;;5043972;28;20168;-75
2022/08/25 04:58:49;;;;;;;12.50;11.20;;;16.40;99.90;;;;;;5042580;28;20284;-75
2022/08/25 05:01:18;;;;;;;12.38;11.27;;;16.50;99.90;;;;;;5040301;28;20184;-76
2022/08/25 05:03:46;;;;;;;13.63;12.18;;;16.50;99.90;;;;;;5036081;28;20237;-75
2022/08/25 05:06:12;;;;;;;12.13;11.02;;;16.50;99.90;;;;;;5034241;28;20613;-75
2022/08/25 05:08:38;;;;;;;12.13;11.02;;;16.60;99.90;;;;;;5023451;28;20209;-75
2022/08/25 05:11:09;;;;;;;12.75;11.45;;;16.60;99.90;;;;;;5044886;28;20544;-75
2022/08/25 05:13:35;;;;;;;13.02;11.65;;;16.70;99.90;;;;;;5035383;28;20199;-75
2022/08/25 05:16:02;;;;;;;11.77;10.55;;;16.70;99.90;;;;;;5045801;28;20227;-75
2022/08/25 05:18:30;;;;;;;14.00;11.63;;;16.80;99.90;;;;;;5039089;28;20222;-76
2022/08/25 05:20:56;;;;;;;12.18;10.98;;;16.90;99.90;;;;;;5033936;28;20176;-75
2022/08/25 05:23:23;;;;;;;12.82;11.18;;;17.00;99.90;;;;;;5043749;28;20525;-75
2022/08/25 05:25:51;;;;;;;12.43;11.25;;;17.00;99.90;;;;;;5029187;28;20177;-75
2022/08/25 05:28:18;;;;;;;12.20;11.00;;;17.10;99.90;;;;;;5046676;28;20258;-75
2022/08/25 05:30:44;;;;;;;12.27;10.98;;;17.30;99.90;;;;;;5035505;28;20177;-75
2022/08/25 05:33:11;;;;;;;12.00;10.82;;;17.30;99.90;;;;;;5048169;28;20245;-75
2022/08/25 05:35:37;;;;;;;12.52;11.30;;;17.40;99.90;;;;;;5036440;28;20639;-75
2022/08/25 05:38:03;;;;;;;12.38;11.07;;;17.50;99.90;;;;;;5034621;28;20741;-75
2022/08/25 05:40:30;;;;;;;12.02;10.93;;;17.70;99.90;;;;;;5042464;28;20180;-75
2022/08/25 05:42:56;;;;;;;13.23;11.93;;;17.80;99.90;;;;;;5033603;28;20694;-75
2022/08/25 05:45:22;;;;;;;12.10;10.90;;;17.90;99.90;;;;;;5041787;28;20184;-75
2022/08/25 05:47:49;;;;;;;12.18;10.93;;;18.00;99.90;;;;;;5045288;28;20543;-75
2022/08/25 05:50:15;;;;;;;11.15;10.00;;;18.00;99.90;;;;;;5032964;28;20254;-75
2022/08/25 05:52:42;;;;;;;12.05;11.05;;;18.10;99.90;;;;;;5045591;28;20259;-75
2022/08/25 05:55:08;;;;;;;12.93;11.63;;;18.20;99.90;;;;;;5039463;28;20210;-75
2022/08/25 05:57:34;;;;;;;12.65;11.40;;;18.40;99.90;;;;;;5045265;28;20278;-75
2022/08/25 06:00:00;;;;;;;13.90;12.07;;;18.40;99.90;;;;;;5030975;28;20209;-75
2022/08/25 06:02:45;;;;;;;12.63;11.35;;;18.60;99.90;;;;;;5042833;28;20231;-75
2022/08/25 06:05:17;;;;;;;12.20;11.00;;;18.60;99.90;;;;;;5037226;28;20260;-76
2022/08/25 06:07:43;;;;;;;11.52;10.48;;;18.80;99.90;;;;;;5043055;28;20199;-75
2022/08/25 06:10:10;;;;;;;12.52;11.27;;;18.90;99.90;;;;;;5036088;28;20659;-75
2022/08/25 06:12:38;;;;;;;13.65;10.85;;;19.00;99.90;;;;;;5042622;28;20189;-75
2022/08/25 06:15:04;;;;;;;11.80;10.48;;;19.10;99.90;;;;;;5050591;28;20207;-76
2022/08/25 06:17:30;;;;;;;12.43;11.23;;;19.20;99.90;;;;;;5040241;28;20224;-74
2022/08/25 06:19:56;;;;;;;11.48;10.40;;;19.30;99.90;;;;;;5044178;28;20570;-74
2022/08/25 06:22:24;;;;;;;11.77;10.68;;;19.50;99.90;;;;;;5046969;28;20176;-75
2022/08/25 06:24:49;;;;;;;11.73;10.18;;;19.60;99.90;;;;;;5043199;28;20769;-74
2022/08/25 06:27:15;;;;;;;14.73;10.75;;;19.70;99.90;;;;;;5041088;28;20224;-75
2022/08/25 06:29:41;;;;;;;12.00;11.00;;;19.80;99.90;;;;;;5042376;28;20643;-74
2022/08/25 06:32:06;;;;;;;10.75;9.70;;;19.90;99.90;;;;;;5050070;28;20188;-75
2022/08/25 06:34:32;;;;;;;10.70;9.68;;;20.00;99.90;;;;;;5039341;28;20200;-75
2022/08/25 06:36:58;;;;;;;11.07;10.07;;;20.10;99.90;;;;;;5044043;28;20173;-75
2022/08/25 06:39:23;;;;;;;11.63;10.55;;;20.30;99.90;;;;;;5046178;28;20555;-75
2022/08/25 06:41:53;;;;;;;11.75;10.55;;;20.40;99.90;;;;;;5042992;28;20533;-75
2022/08/25 06:44:20;;;;;;;9.80;9.00;;;20.50;99.90;;;;;;5035954;28;20190;-75
2022/08/25 06:46:46;;;;;;;10.38;9.48;;;20.60;99.90;;;;;;5034396;28;20674;-75
2022/08/25 06:49:12;;;;;;;11.90;10.70;;;20.80;99.90;;;;;;5045175;28;20254;-75
2022/08/25 06:51:38;;;;;;;11.80;10.57;;;20.90;99.90;;;;;;5043326;28;20210;-76
2022/08/25 06:54:06;;;;;;;10.48;9.50;;;20.90;99.90;;;;;;5044509;28;20231;-75
2022/08/25 06:56:33;;;;;;;12.18;9.95;;;21.10;99.90;;;;;;5040765;28;20179;-75
2022/08/25 06:59:03;;;;;;;11.85;10.75;;;21.20;99.90;;;;;;5044216;28;20247;-76
2022/08/25 07:01:30;;;;;;;11.27;10.05;;;21.40;99.90;;;;;;5045297;28;20172;-75
2022/08/25 07:03:58;;;;;;;11.45;10.32;;;21.50;99.90;;;;;;5043146;28;20550;-75
2022/08/25 07:06:26;;;;;;;12.25;10.10;;;21.70;99.90;;;;;;5044663;28;20184;-76
2022/08/25 07:08:53;;;;;;;10.90;9.95;;;21.90;99.90;;;;;;5043450;28;20565;-75
2022/08/25 07:11:20;;;;;;;11.23;9.95;;;22.20;99.90;;;;;;5044981;28;20182;-76
2022/08/25 07:13:46;;;;;;;9.90;9.05;;;22.20;99.90;;;;;;5041243;28;20207;-73
2022/08/25 07:16:14;;;;;;;10.10;9.05;;;22.50;99.90;;;;;;5044924;28;20225;-73
2022/08/25 07:18:40;;;;;;;11.45;10.40;;;22.60;99.90;;;;;;5044623;28;20305;-72
2022/08/25 07:21:05;;;;;;;11.13;9.98;;;22.80;99.90;;;;;;5037340;28;20184;-72
2022/08/25 07:23:31;;;;;;;9.88;8.88;;;22.90;99.90;;;;;;5037958;28;20172;-72
2022/08/25 07:26:10;;;;;;;12.05;9.70;;;23.20;99.90;;;;;;5043400;28;20639;-72
2022/08/25 07:28:37;;;;;;;10.13;9.32;;;23.30;99.90;;;;;;5044388;28;20292;-72
2022/08/25 07:31:03;;;;;;;9.75;8.77;;;23.50;99.90;;;;;;5042833;28;20187;-72
2022/08/25 07:33:29;;;;;;;9.70;8.82;;;23.70;99.90;;;;;;5044661;28;20176;-73
2022/08/25 07:35:55;;;;;;;8.93;8.02;;;23.70;99.90;;;;;;5058455;28;20190;-73
2022/08/25 07:38:21;;;;;;;10.00;9.07;;;23.60;99.90;;;;;;5043832;28;20196;-73
2022/08/25 07:40:53;;;;;;;12.52;8.80;;;23.80;99.90;;;;;;5042644;28;20168;-73
2022/08/25 07:43:20;;;;;;;9.18;8.27;;;23.90;99.90;;;;;;5037310;28;20254;-73
2022/08/25 07:45:46;;;;;;;9.48;8.02;;;24.00;99.90;;;;;;5036128;28;20200;-73
2022/08/25 07:48:13;;;;;;;8.02;7.25;;;24.10;99.90;;;;;;5040756;28;20732;-73
2022/08/25 07:50:42;;;;;;;11.38;8.15;;;24.30;99.90;;;;;;5033730;28;20177;-73
2022/08/25 07:53:09;;;;;;;11.48;7.60;;;24.40;99.90;;;;;;5047495;28;20184;-73
2022/08/25 07:55:35;;;;;;;7.95;7.18;;;24.40;99.90;;;;;;5040572;28;20572;-73
2022/08/25 07:58:03;;;;;;;7.93;6.88;;;24.50;99.90;;;;;;5036546;28;20203;-72
2022/08/25 08:00:31;;;;;;;7.53;6.93;;;24.60;99.90;;;;;;5032291;28;20172;-73
2022/08/25 08:02:58;;;;;;;8.27;7.45;;;24.70;99.90;;;;;;5040372;28;20177;-73
2022/08/25 08:05:24;;;;;;;7.80;6.95;;;24.70;99.90;;;;;;5042971;28;20239;-72
2022/08/25 08:07:51;;;;;;;8.75;7.43;;;24.80;99.90;;;;;;5036519;28;20676;-72
2022/08/25 08:10:17;;;;;;;8.35;7.40;;;24.80;99.90;;;;;;5038395;28;20667;-72
2022/08/25 08:12:44;;;;;;;11.75;7.55;;;24.90;99.90;;;;;;5037058;28;20195;-72
2022/08/25 08:15:11;;;;;;;9.75;7.00;;;25.00;99.90;;;;;;5032318;28;20224;-72
2022/08/25 08:17:38;;;;;;;13.65;7.70;;;25.10;99.90;;;;;;5037639;28;20219;-72
2022/08/25 08:20:07;;;;;;;12.13;7.50;;;25.10;99.90;;;;;;5034796;28;20191;-73
2022/08/25 08:22:34;;;;;;;17.17;8.38;;;25.30;99.90;;;;;;5043909;28;20177;-73
2022/08/25 08:25:01;;;;;;;9.98;7.43;;;25.40;99.90;;;;;;5040127;28;20314;-73
2022/08/25 08:27:26;;;;;;;14.90;8.27;;;25.50;99.90;;;;;;5035653;28;20208;-73
2022/08/25 08:29:52;;;;;;;11.82;6.85;;;25.70;99.90;;;;;;5035445;28;20184;-73
2022/08/25 08:32:19;;;;;;;9.73;7.28;;;25.80;99.90;;;;;;5043511;28;20226;-73
2022/08/25 08:34:46;;;;;;;11.77;8.23;;;26.00;99.90;;;;;;5024695;28;20212;-73
2022/08/25 08:37:12;;;;;;;16.40;8.48;;;26.30;99.90;;;;;;5029259;28;20450;-73
2022/08/25 08:39:38;;;;;;;17.27;8.52;;;26.40;99.90;;;;;;5058728;28;20255;-73
2022/08/25 08:42:45;;;;;;;22.02;8.90;;;26.40;99.90;;;;;;5042615;28;20242;-73
2022/08/25 08:45:34;;;;;;;15.82;7.90;;;26.60;99.90;;;;;;5032478;28;20674;-73
2022/08/25 08:48:27;;;;;;;21.70;8.35;;;26.80;99.90;;;;;;5041024;28;20206;-73
2022/08/25 08:51:04;;;;;;;13.18;8.43;;;26.80;99.90;;;;;;5034562;28;20235;-73
2022/08/25 08:53:47;;;;;;;18.27;8.70;;;26.80;99.90;;;;;;5031265;28;20187;-73
2022/08/25 08:56:22;;;;;;;14.02;7.68;;;27.10;99.90;;;;;;5038467;28;20208;-73
2022/08/25 08:59:00;;;;;;;12.93;7.78;;;27.20;99.90;;;;;;5034986;28;20191;-73
2022/08/25 09:01:33;;;;;;;10.40;6.93;;;27.40;99.90;;;;;;5040531;28;20539;-73
2022/08/25 09:04:07;;;;;;;10.23;7.60;;;27.50;99.90;;;;;;5039976;28;20669;-74
2022/08/25 09:06:51;;;;;;;11.35;7.35;;;27.80;99.90;;;;;;5042992;28;20187;-74
2022/08/25 09:09:26;;;;;;;11.10;6.60;;;28.10;99.90;;;;;;5033459;28;20371;-73
2022/08/25 09:11:51;;;;;;;13.93;7.15;;;28.50;99.90;;;;;;5034751;28;20180;-73
2022/08/25 09:14:29;;;;;;;10.73;7.20;;;29.20;99.90;;;;;;5031107;28;20214;-74
2022/08/25 09:17:00;;;;;;;8.73;6.20;;;29.90;99.90;;;;;;5041255;28;20232;-73
2022/08/25 09:19:53;;;;;;;7.00;6.30;;;30.00;99.20;;;;;;5043469;28;20262;-74
2022/08/25 09:22:41;;;;;;;9.70;6.57;;;31.20;96.60;;;;;;5036231;28;20183;-73
2022/08/25 09:25:35;;;;;;;8.20;5.78;;;33.90;90.40;;;;;;5047105;28;20179;-73
2022/08/25 09:28:07;;;;;;;9.15;6.43;;;36.60;77.00;;;;;;5034337;28;20219;-73
2022/08/25 09:30:46;;;;;;;7.55;6.20;;;37.90;65.30;;;;;;5032019;28;20240;-72
2022/08/25 09:33:17;;;;;;;6.75;6.10;;;38.50;61.10;;;;;;5030515;28;20186;-72
2022/08/25 09:35:44;;;;;;;7.93;5.47;;;38.20;61.50;;;;;;5043531;28;20199;-72
2022/08/25 09:38:12;;;;;;;11.25;6.15;;;38.60;58.90;;;;;;5030797;28;20199;-71
2022/08/25 09:40:42;;;;;;;6.90;5.85;;;37.90;58.90;;;;;;5046972;28;20213;-70
2022/08/25 09:43:21;;;;;;;13.77;6.22;;;37.00;60.00;;;;;;5046081;28;20179;-70
2022/08/25 09:45:56;;;;;;;7.43;6.20;;;35.80;63.50;;;;;;5041992;28;20186;-70
2022/08/25 09:48:29;;;;;;;7.88;5.63;;;35.80;62.80;;;;;;5037413;28;20195;-72
2022/08/25 09:51:08;;;;;;;8.52;5.60;;;35.00;64.20;;;;;;5045251;28;20266;-70
2022/08/25 09:53:34;;;;;;;10.73;5.80;;;34.20;66.80;;;;;;5048529;28;20170;-72
2022/08/25 09:56:06;;;;;;;9.93;6.97;;;33.90;67.60;;;;;;5039337;28;20215;-72
2022/08/25 09:58:32;;;;;;;14.18;6.95;;;33.50;68.60;;;;;;5048568;28;20183;-71
2022/08/25 10:01:14;;;;;;;9.38;6.47;;;33.20;70.50;;;;;;5044511;28;20657;-71
2022/08/25 10:04:00;;;;;;;7.35;5.72;;;33.80;69.30;;;;;;5035051;28;20184;-71
2022/08/25 10:06:41;;;;;;;10.63;6.65;;;33.70;69.20;;;;;;5037669;28;20172;-71
2022/08/25 10:09:07;;;;;;;9.85;6.45;;;34.00;69.40;;;;;;5044961;28;20187;-72
2022/08/25 10:11:36;;;;;;;12.18;6.32;;;35.20;67.00;;;;;;5046283;28;20167;-72
2022/08/25 10:14:05;;;;;;;9.32;5.95;;;36.50;64.40;;;;;;5042044;28;20586;-71
2022/08/25 10:16:32;;;;;;;10.45;6.30;;;37.50;60.90;;;;;;5061398;28;20174;-72
2022/08/25 10:19:04;;;;;;;11.30;6.25;;;38.20;58.30;;;;;;5045351;28;20199;-70
2022/08/25 10:21:30;;;;;;;8.18;5.40;;;39.00;56.80;;;;;;5036028;28;20239;-71
2022/08/25 10:23:56;;;;;;;7.43;5.97;;;39.70;54.80;;;;;;5044687;28;20176;-71
2022/08/25 10:26:31;;;;;;;10.68;5.65;;;40.00;54.10;;;;;;5032987;28;20204;-71
2022/08/25 10:29:21;;;;;;;8.57;5.57;;;40.50;54.00;;;;;;5040922;28;20624;-70
2022/08/25 10:32:03;;;;;;;8.63;5.30;;;41.10;52.10;;;;;;5045316;28;20211;-71
2022/08/25 10:34:37;;;;;;;6.65;6.03;;;42.00;51.00;;;;;;5042229;28;20235;-70
2022/08/25 10:37:34;;;;;;;8.77;5.65;;;41.60;50.40;;;;;;5040333;28;20179;-71
2022/08/25 10:40:09;;;;;;;6.55;5.50;;;39.80;52.50;;;;;;5037282;28;20648;-72
2022/08/25 10:42:55;;;;;;;7.85;5.82;;;39.20;54.00;;;;;;5045960;28;20658;-72
2022/08/25 10:45:42;;;;;;;6.35;5.68;;;39.20;53.40;;;;;;5035160;28;20176;-71
2022/08/25 10:48:29;;;;;;;8.68;5.95;;;38.90;54.00;;;;;;5042123;28;20356;-73
2022/08/25 10:51:05;;;;;;;7.10;6.22;;;37.70;56.00;;;;;;5043873;28;20201;-71
2022/08/25 10:53:58;;;;;;;6.80;6.15;;;36.80;57.50;;;;;;5045637;28;20199;-71
2022/08/25 10:56:39;;;;;;;7.35;5.97;;;36.10;58.90;;;;;;5035222;28;20641;-71
2022/08/25 10:59:31;;;;;;;6.40;5.82;;;35.80;60.40;;;;;;5049165;28;20206;-72
2022/08/25 11:02:44;;;;;;;6.70;6.05;;;35.40;60.40;;;;;;5041725;28;20215;-71
2022/08/25 11:05:30;;;;;;;7.82;6.63;;;35.50;61.40;;;;;;5036511;28;20190;-70
2022/08/25 11:08:33;;;;;;;7.43;6.05;;;35.60;61.40;;;;;;5042301;28;20696;-71
2022/08/25 11:11:12;;;;;;;8.15;6.57;;;35.50;60.10;;;;;;5042984;28;20195;-72
2022/08/25 11:13:46;;;;;;;9.88;6.72;;;35.20;61.20;;;;;;5037238;28;20194;-72
2022/08/25 11:16:17;;;;;;;14.07;6.65;;;35.00;63.20;;;;;;5032571;28;20551;-72
2022/08/25 11:18:51;;;;;;;8.77;6.53;;;34.80;62.80;;;;;;5043640;28;20191;-72
2022/08/25 11:21:35;;;;;;;8.50;5.95;;;34.70;63.80;;;;;;5029170;28;20727;-71
2022/08/25 11:24:22;;;;;;;7.70;6.57;;;34.30;63.50;;;;;;5043181;28;20189;-72
2022/08/25 11:26:54;;;;;;;12.93;6.43;;;34.40;63.90;;;;;;5041398;28;20175;-71
2022/08/25 11:29:23;;;;;;;6.82;6.10;;;35.10;63.70;;;;;;5031323;28;20524;-71
2022/08/25 11:31:51;;;;;;;12.30;6.28;;;35.90;61.10;;;;;;5042288;28;20265;-72
2022/08/25 11:34:17;;;;;;;11.32;5.55;;;36.50;59.60;;;;;;5036500;28;20409;-72
2022/08/25 11:36:59;;;;;;;10.25;6.47;;;36.50;58.60;;;;;;5047848;28;20179;-72
2022/08/25 11:39:28;;;;;;;9.48;6.35;;;35.80;58.90;;;;;;5028018;28;20169;-71
2022/08/25 11:42:05;;;;;;;10.77;6.45;;;36.40;59.10;;;;;;5048794;28;20182;-72
2022/08/25 11:44:49;;;;;;;10.40;6.05;;;37.70;57.60;;;;;;5038109;28;20183;-72
2022/08/25 11:47:39;;;;;;;13.85;5.90;;;39.50;54.20;;;;;;5028282;28;20808;-72
2022/08/25 11:50:30;;;;;;;14.80;5.38;;;40.70;51.90;;;;;;5042780;28;20241;-72
2022/08/25 11:53:01;;;;;;;16.83;5.80;;;41.90;49.30;;;;;;5041537;28;20188;-71
2022/08/25 11:55:36;;;;;;;13.45;6.25;;;43.10;47.00;;;;;;5040911;28;20308;-71
2022/08/25 11:58:32;;;;;;;14.45;5.30;;;42.80;46.60;;;;;;5033252;28;20195;-71
2022/08/25 12:01:00;;;;;;;14.75;6.07;;;43.80;45.10;;;;;;5047656;28;20549;-71
2022/08/25 12:03:35;;;;;;;10.50;5.22;;;43.80;44.60;;;;;;5040563;28;20172;-72
2022/08/25 12:06:29;;;;;;;10.63;5.63;;;44.10;44.70;;;;;;5032948;28;20184;-71
2022/08/25 12:09:03;;;;;;;15.43;5.32;;;44.70;43.70;;;;;;5038809;28;20215;-72
2022/08/25 12:11:41;;;;;;;12.13;5.40;;;44.50;43.80;;;;;;5041068;28;20541;-71
2022/08/25 12:14:21;;;;;;;13.40;5.70;;;43.20;44.90;;;;;;5035298;28;20262;-71
2022/08/25 12:16:50;;;;;;;14.60;5.85;;;42.50;44.90;;;;;;5032973;28;20176;-71
2022/08/25 12:19:36;;;;;;;13.95;5.80;;;42.00;46.30;;;;;;5039589;28;20309;-71
2022/08/25 12:22:02;;;;;;;11.48;5.40;;;41.40;46.50;;;;;;5042971;28;20183;-71
2022/08/25 12:24:42;;;;;;;12.35;5.55;;;40.90;47.70;;;;;;5045533;28;20175;-74
2022/08/25 12:27:22;;;;;;;9.25;5.85;;;40.40;48.40;;;;;;5039773;28;20206;-73
2022/08/25 12:29:54;;;;;;;14.18;5.95;;;39.60;49.80;;;;;;5041949;28;20178;-73
2022/08/25 12:32:39;;;;;;;10.07;6.00;;;39.00;49.50;;;;;;5053950;28;20179;-74
2022/08/25 12:35:28;;;;;;;11.43;6.10;;;38.70;50.70;;;;;;5040441;28;20203;-75
2022/08/25 12:38:09;;;;;;;18.38;10.80;;;38.40;51.50;;;;;;5046546;28;20235;-72
2022/08/25 12:40:46;;;;;;;13.43;6.70;;;38.30;51.80;;;;;;5036602;28;20180;-72
2022/08/25 12:43:26;;;;;;;12.35;5.75;;;38.50;52.20;;;;;;5033117;28;20168;-72
2022/08/25 12:46:13;;;;;;;13.30;5.95;;;38.40;52.20;;;;;;5038370;28;20190;-72
2022/08/25 12:48:56;;;;;;;14.00;6.15;;;37.80;52.80;;;;;;5045199;28;20235;-72
2022/08/25 12:51:53;;;;;;;19.13;6.60;;;37.80;52.80;;;;;;5033344;28;20182;-72
2022/08/25 12:54:43;;;;;;;14.07;6.50;;;38.20;51.90;;;;;;5036583;28;20207;-72
2022/08/25 12:57:40;;;;;;;15.88;5.70;;;38.20;52.30;;;;;;5038887;28;20651;-72
2022/08/25 13:00:22;;;;;;;16.20;6.75;;;37.90;52.40;;;;;;5046551;28;20188;-72